Time;durP1;ratioP1;P1;durP2;ratioP2;P2;SDS_P1;SDS_P2;PMS_P1;PMS_P2;Temp;Humidity;BMP_temperature;BMP_pressure;BME280_temperature;BME280_humidity;BME280_pressure;Samples;Min_cycle;Max_cycle;Signal;HPM_P1;HPM_P2
2022/06/23 00:00:48;;;;;;;6.10;3.83;;;;;;;17.17;100.00;95536.44;5052250;28;24526;-78
2022/06/23 00:03:20;;;;;;;10.27;4.23;;;;;;;17.22;100.00;95535.19;5051434;28;24434;-77
2022/06/23 00:05:58;;;;;;;14.27;5.07;;;;;;;17.36;100.00;95526.88;5050995;28;24450;-78
2022/06/23 00:08:26;;;;;;;12.52;4.43;;;;;;;17.27;100.00;95525.09;5051414;28;24439;-77
2022/06/23 00:10:55;;;;;;;7.75;4.20;;;;;;;17.28;100.00;95517.13;5050627;28;24467;-78
2022/06/23 00:13:25;;;;;;;8.20;4.18;;;;;;;17.21;100.00;95536.16;5051633;28;24435;-78
2022/06/23 00:15:55;;;;;;;5.07;3.70;;;;;;;17.16;100.00;95540.00;5049881;28;24861;-78
2022/06/23 00:18:24;;;;;;;7.97;4.22;;;;;;;17.05;100.00;95539.34;5051204;28;24538;-77
2022/06/23 00:20:54;;;;;;;16.70;4.93;;;;;;;17.04;100.00;95542.94;5037684;28;24439;-76
2022/06/23 00:23:24;;;;;;;5.93;4.38;;;;;;;17.11;100.00;95547.47;5046274;28;25003;-78
2022/06/23 00:25:58;;;;;;;8.55;4.55;;;;;;;17.04;100.00;95540.31;5042809;28;24443;-77
2022/06/23 00:28:28;;;;;;;11.68;4.75;;;;;;;17.10;100.00;95535.38;5045964;28;24428;-78
2022/06/23 00:30:57;;;;;;;7.10;4.03;;;;;;;17.13;100.00;95535.09;5036816;28;24439;-77
2022/06/23 00:33:27;;;;;;;7.78;4.50;;;;;;;17.15;100.00;95533.13;5050719;28;24439;-76
2022/06/23 00:35:55;;;;;;;14.90;4.75;;;;;;;17.13;100.00;95529.84;5048264;28;24953;-77
2022/06/23 00:38:26;;;;;;;10.25;4.60;;;;;;;17.13;100.00;95532.47;5043420;28;24455;-78
2022/06/23 00:40:56;;;;;;;16.65;4.55;;;;;;;17.16;100.00;95526.91;5049299;28;24427;-78
2022/06/23 00:43:24;;;;;;;9.40;4.20;;;;;;;17.10;100.00;95513.59;5047122;28;24438;-78
2022/06/23 00:45:56;;;;;;;9.15;4.22;;;;;;;17.12;100.00;95514.28;5049891;28;24439;-78
2022/06/23 00:48:27;;;;;;;10.25;4.15;;;;;;;17.17;100.00;95518.13;5043900;28;24423;-77
2022/06/23 00:51:00;;;;;;;10.90;3.97;;;;;;;17.11;100.00;95528.34;5047019;28;24435;-77
2022/06/23 00:53:31;;;;;;;9.75;4.15;;;;;;;16.92;100.00;95534.44;5052030;28;24892;-78
2022/06/23 00:56:24;;;;;;;6.10;3.88;;;;;;;16.84;100.00;95534.31;5052641;28;24838;-78
2022/06/23 00:58:56;;;;;;;5.80;3.67;;;;;;;16.80;100.00;95538.19;5051882;28;24873;-78
2022/06/23 01:01:27;;;;;;;10.03;4.17;;;;;;;16.82;100.00;95537.06;4989359;28;1717841;-78
2022/06/23 01:03:59;;;;;;;9.80;3.63;;;;;;;16.81;100.00;95542.44;5044770;28;24441;-77
2022/06/23 01:06:34;;;;;;;6.13;3.63;;;;;;;16.80;100.00;95546.03;5048858;28;24450;-78
2022/06/23 01:09:11;;;;;;;7.68;3.80;;;;;;;16.80;100.00;95548.66;5043241;28;24872;-78
2022/06/23 01:11:43;;;;;;;11.02;4.60;;;;;;;16.88;100.00;95539.13;5048303;28;24483;-78
2022/06/23 01:14:28;;;;;;;8.18;3.90;;;;;;;16.90;100.00;95549.44;5051175;28;25079;-78
2022/06/23 01:17:02;;;;;;;8.43;3.45;;;;;;;16.96;100.00;95550.69;5048000;28;24439;-78
2022/06/23 01:20:02;;;;;;;5.03;3.30;;;;;;;16.76;100.00;95552.47;5051786;28;24659;-78
2022/06/23 01:22:41;;;;;;;6.47;3.60;;;;;;;16.68;100.00;95553.16;5052641;28;24428;-77
2022/06/23 01:25:26;;;;;;;4.88;3.75;;;;;;;16.75;100.00;95550.84;5045456;28;24979;-79
2022/06/23 01:28:02;;;;;;;6.80;3.75;;;;;;;16.38;100.00;95554.94;5051140;28;24432;-78
2022/06/23 01:30:35;;;;;;;5.15;3.38;;;;;;;16.24;100.00;95562.34;5048189;28;24793;-78
2022/06/23 01:33:13;;;;;;;11.60;4.10;;;;;;;16.14;100.00;95557.97;5054616;28;24524;-78
2022/06/23 01:35:45;;;;;;;9.55;4.43;;;;;;;16.07;100.00;95551.63;5042566;28;24797;-76
2022/06/23 01:38:19;;;;;;;7.63;4.13;;;;;;;16.16;100.00;95557.81;5042075;28;24546;-77
2022/06/23 01:40:53;;;;;;;6.90;3.70;;;;;;;16.19;100.00;95560.97;5049770;28;24438;-78
2022/06/23 01:43:26;;;;;;;5.53;3.40;;;;;;;16.26;100.00;95558.66;5055632;28;24470;-78
2022/06/23 01:45:58;;;;;;;6.15;3.53;;;;;;;16.28;100.00;95564.59;5043591;28;25134;-78
2022/06/23 01:51:24;;;;;;;5.17;3.20;;;;;;;16.34;100.00;95568.44;5035764;28;24521;-77
2022/06/23 01:53:52;;;;;;;4.38;3.38;;;;;;;16.30;100.00;95567.88;5053199;28;24853;-77
2022/06/23 01:56:37;;;;;;;4.88;3.45;;;;;;;16.24;100.00;95560.59;5052974;28;24450;-78
2022/06/23 01:59:18;;;;;;;4.82;3.50;;;;;;;16.21;100.00;95553.84;5044820;28;24467;-77
2022/06/23 02:01:52;;;;;;;15.45;4.55;;;;;;;16.12;100.00;95556.44;5051342;28;24980;-77
2022/06/23 02:04:26;;;;;;;8.07;3.70;;;;;;;16.10;100.00;95548.75;5049031;28;24983;-76
2022/06/23 02:06:57;;;;;;;12.25;5.78;;;;;;;16.19;100.00;95560.16;5051898;28;24442;-76
2022/06/23 02:09:32;;;;;;;14.25;6.57;;;;;;;16.07;100.00;95559.47;5049326;28;24439;-76
2022/06/23 02:11:59;;;;;;;12.18;6.82;;;;;;;16.04;100.00;95567.56;5044520;28;24427;-77
2022/06/23 02:14:55;;;;;;;13.45;5.75;;;;;;;16.08;100.00;95568.13;5049417;28;24481;-77
2022/06/23 02:17:36;;;;;;;11.35;5.65;;;;;;;16.00;100.00;95568.78;5045982;28;24995;-77
2022/06/23 02:20:17;;;;;;;12.75;6.22;;;;;;;15.96;100.00;95573.47;5039528;28;24434;-78
2022/06/23 02:22:47;;;;;;;13.65;7.70;;;;;;;15.97;100.00;95567.25;5050892;28;24446;-77
2022/06/23 02:25:17;;;;;;;16.10;8.57;;;;;;;16.03;100.00;95573.75;5048624;28;25000;-76
2022/06/23 02:27:48;;;;;;;16.92;8.93;;;;;;;16.09;100.00;95574.97;5051727;28;24431;-77
2022/06/23 02:30:20;;;;;;;19.73;9.00;;;;;;;16.08;100.00;95571.56;5049328;28;24447;-77
2022/06/23 02:33:04;;;;;;;14.85;8.65;;;;;;;16.13;100.00;95582.44;5049123;28;24538;-77
2022/06/23 02:35:35;;;;;;;21.40;7.70;;;;;;;16.11;100.00;95584.34;5048968;28;24443;-77
2022/06/23 02:38:07;;;;;;;11.07;5.95;;;;;;;16.13;100.00;95587.66;5039194;28;24992;-77
2022/06/23 02:40:38;;;;;;;10.85;5.88;;;;;;;16.22;100.00;95580.78;5049147;28;25011;-76
2022/06/23 02:43:15;;;;;;;15.88;5.22;;;;;;;16.11;100.00;95584.34;5046850;28;24438;-77
2022/06/23 02:46:21;;;;;;;15.45;4.90;;;;;;;16.14;100.00;95589.31;5048857;28;24435;-77
2022/06/23 02:49:28;;;;;;;11.38;5.68;;;;;;;16.20;100.00;95582.69;5044596;28;24809;-77
2022/06/23 02:52:33;;;;;;;9.45;5.93;;;;;;;16.26;100.00;95589.19;5026301;28;24435;-77
2022/06/23 02:55:32;;;;;;;9.70;4.93;;;;;;;16.21;100.00;95592.22;5034702;28;24443;-77
2022/06/23 02:58:05;;;;;;;6.68;5.07;;;;;;;16.26;100.00;95591.81;5038674;28;24454;-77
2022/06/23 03:00:41;;;;;;;7.32;4.50;;;;;;;16.25;100.00;95587.56;5049484;28;24435;-77
2022/06/23 03:03:16;;;;;;;11.00;4.40;;;;;;;16.31;100.00;95597.44;5047132;28;24470;-76
2022/06/23 03:05:49;;;;;;;16.45;3.85;;;;;;;16.28;100.00;95595.94;5048394;28;24965;-77
2022/06/23 03:08:24;;;;;;;6.72;3.20;;;;;;;16.24;100.00;95604.16;5047387;28;24435;-77
2022/06/23 03:10:57;;;;;;;9.80;3.83;;;;;;;16.17;100.00;95599.50;5042978;28;24439;-76
2022/06/23 03:13:32;;;;;;;6.88;3.72;;;;;;;16.07;100.00;95605.66;5041707;28;24473;-77
2022/06/23 03:16:06;;;;;;;6.43;3.90;;;;;;;15.94;100.00;95605.88;5042453;28;24789;-76
2022/06/23 03:18:41;;;;;;;7.30;3.47;;;;;;;16.00;100.00;95602.75;5046568;28;24924;-77
2022/06/23 03:21:16;;;;;;;7.28;3.85;;;;;;;16.04;100.00;95596.28;5050722;28;24836;-77
2022/06/23 03:23:47;;;;;;;16.67;3.58;;;;;;;16.07;100.00;95606.47;5045627;28;24430;-76
2022/06/23 03:26:18;;;;;;;9.27;4.35;;;;;;;16.11;100.00;95614.88;5050489;28;25038;-77
2022/06/23 03:28:49;;;;;;;6.85;3.22;;;;;;;16.06;100.00;95609.25;5045801;28;24527;-77
2022/06/23 03:31:21;;;;;;;5.68;3.63;;;;;;;16.00;100.00;95617.59;5044319;28;24832;-77
2022/06/23 03:33:56;;;;;;;6.75;3.95;;;;;;;16.02;100.00;95616.50;5046036;28;24438;-76
2022/06/23 03:36:29;;;;;;;8.30;3.35;;;;;;;16.09;100.00;95615.03;5050566;28;24531;-77
2022/06/23 03:41:52;;;;;;;7.18;3.50;;;;;;;15.77;100.00;95616.97;5005465;28;24427;-77
2022/06/23 03:44:24;;;;;;;7.45;3.72;;;;;;;15.90;100.00;95605.31;5050009;28;24443;-77
2022/06/23 03:46:57;;;;;;;6.43;3.47;;;;;;;15.97;100.00;95608.22;5049978;28;25011;-76
2022/06/23 03:49:41;;;;;;;6.10;3.85;;;;;;;16.02;100.00;95615.66;5038658;28;24428;-76
2022/06/23 03:52:18;;;;;;;9.48;3.63;;;;;;;16.10;100.00;95613.22;5043599;28;24494;-76
2022/06/23 03:54:51;;;;;;;8.20;3.38;;;;;;;16.13;100.00;95611.19;5040181;28;24446;-76
2022/06/23 03:57:22;;;;;;;13.85;3.80;;;;;;;16.06;100.00;95615.28;5045536;28;24497;-76
2022/06/23 04:00:07;;;;;;;6.72;3.22;;;;;;;15.96;100.00;95614.44;5047207;28;24556;-77
2022/06/23 04:02:41;;;;;;;5.32;3.00;;;;;;;16.07;100.00;95624.78;5044676;28;24793;-77
2022/06/23 04:05:21;;;;;;;7.45;3.22;;;;;;;16.08;100.00;95626.41;5045279;28;24432;-77
2022/06/23 04:07:52;;;;;;;5.90;3.25;;;;;;;16.13;100.00;95620.78;5045768;28;24423;-76
2022/06/23 04:10:30;;;;;;;5.57;3.35;;;;;;;16.12;100.00;95625.19;5041011;28;24969;-76
2022/06/23 04:13:02;;;;;;;4.83;3.10;;;;;;;16.15;100.00;95635.38;5041768;28;24516;-76
2022/06/23 04:15:31;;;;;;;11.63;3.72;;;;;;;16.02;100.00;95636.56;5047931;28;24435;-76
2022/06/23 04:18:02;;;;;;;14.57;3.08;;;;;;;15.91;100.00;95630.50;5048626;28;24797;-76
2022/06/23 04:20:35;;;;;;;23.20;3.63;;;;;;;15.77;100.00;95630.03;5039395;28;24996;-76
2022/06/23 04:23:05;;;;;;;16.52;2.78;;;;;;;15.75;100.00;95627.53;5042199;28;24980;-76
2022/06/23 04:25:41;;;;;;;10.98;3.45;;;;;;;15.82;100.00;95628.66;5046172;28;24439;-76
2022/06/23 04:28:20;;;;;;;5.93;2.72;;;;;;;15.77;100.00;95632.66;5043004;28;24861;-75
2022/06/23 04:30:47;;;;;;;9.32;3.13;;;;;;;15.78;100.00;95637.72;5046427;28;24431;-76
2022/06/23 04:33:18;;;;;;;5.97;3.80;;;;;;;15.87;100.00;95633.47;5049999;28;24518;-76
2022/06/23 04:35:49;;;;;;;16.30;4.18;;;;;;;15.73;100.00;95640.72;5046587;28;24530;-77
2022/06/23 04:38:21;;;;;;;8.55;3.63;;;;;;;15.90;100.00;95646.28;5049556;28;24455;-75
2022/06/23 04:40:51;;;;;;;5.78;3.53;;;;;;;15.97;100.00;95639.56;5047006;28;24796;-76
2022/06/23 04:43:21;;;;;;;4.13;3.17;;;;;;;16.04;100.00;95638.09;5044166;28;24477;-76
2022/06/23 04:45:59;;;;;;;5.63;3.53;;;;;;;16.12;100.00;95633.03;5046049;28;24428;-76
2022/06/23 04:48:31;;;;;;;8.00;3.70;;;;;;;16.21;100.00;95639.25;5044233;28;24435;-76
2022/06/23 04:51:02;;;;;;;6.38;3.35;;;;;;;16.15;100.00;95632.75;5049385;28;24427;-76
2022/06/23 04:53:41;;;;;;;7.75;4.50;;;;;;;16.20;100.00;95638.44;5044354;28;24997;-76
2022/06/23 04:56:19;;;;;;;4.72;3.45;;;;;;;16.24;100.00;95644.22;5048618;28;24447;-77
2022/06/23 04:58:51;;;;;;;7.55;3.78;;;;;;;16.24;100.00;95636.38;5042619;28;24558;-76
2022/06/23 05:01:22;;;;;;;9.95;4.15;;;;;;;16.14;100.00;95641.56;5049240;28;24423;-76
2022/06/23 05:03:54;;;;;;;7.15;4.03;;;;;;;16.06;100.00;95646.63;5043113;28;24988;-76
2022/06/23 05:06:32;;;;;;;10.68;3.70;;;;;;;16.07;100.00;95653.50;5049888;28;24430;-76
2022/06/23 05:09:02;;;;;;;4.37;3.47;;;;;;;16.15;100.00;95658.88;5045881;28;24965;-76
2022/06/23 05:11:33;;;;;;;9.77;3.97;;;;;;;16.12;100.00;95643.47;5053300;28;24432;-77
2022/06/23 05:14:07;;;;;;;11.48;3.83;;;;;;;16.03;100.00;95646.06;5045637;28;24627;-77
2022/06/23 05:16:40;;;;;;;6.68;4.57;;;;;;;15.98;100.00;95651.66;5048600;28;24974;-77
2022/06/23 05:19:10;;;;;;;4.63;3.33;;;;;;;16.16;100.00;95652.69;5046540;28;24540;-77
2022/06/23 05:21:42;;;;;;;5.80;3.55;;;;;;;16.22;100.00;95651.34;5042289;28;24434;-77
2022/06/23 05:24:14;;;;;;;4.90;3.88;;;;;;;16.17;100.00;95637.88;5046455;28;24832;-76
2022/06/23 05:26:47;;;;;;;9.02;4.18;;;;;;;16.40;100.00;95644.50;5047761;28;24442;-77
2022/06/23 05:29:19;;;;;;;5.38;3.75;;;;;;;16.65;100.00;95640.56;5039505;28;24983;-77
2022/06/23 05:31:49;;;;;;;7.53;3.78;;;;;;;16.70;100.00;95642.75;5046571;28;24996;-77
2022/06/23 05:34:22;;;;;;;9.45;4.13;;;;;;;16.91;100.00;95640.88;5034400;28;24774;-77
2022/06/23 05:37:02;;;;;;;6.40;3.72;;;;;;;17.10;100.00;95637.41;5047208;28;25041;-76
2022/06/23 05:39:34;;;;;;;6.40;3.43;;;;;;;17.09;100.00;95653.22;5045954;28;24588;-76
2022/06/23 05:42:10;;;;;;;7.50;3.95;;;;;;;17.06;100.00;95643.06;5049057;28;24450;-76
2022/06/23 05:44:49;;;;;;;6.35;3.95;;;;;;;16.89;100.00;95648.00;5044942;28;24836;-76
2022/06/23 05:47:19;;;;;;;5.75;3.47;;;;;;;17.05;100.00;95654.47;5047964;28;24434;-74
2022/06/23 05:49:49;;;;;;;9.37;3.60;;;;;;;17.00;100.00;95654.91;5042442;28;24530;-74
2022/06/23 05:52:21;;;;;;;4.25;2.92;;;;;;;17.03;100.00;95648.56;5047197;28;24960;-74
2022/06/23 05:54:53;;;;;;;4.30;3.05;;;;;;;16.87;100.00;95649.97;5040272;28;24485;-75
2022/06/23 05:57:22;;;;;;;13.23;3.03;;;;;;;16.93;100.00;95649.38;5046924;28;24442;-76
2022/06/23 06:00:04;;;;;;;8.75;3.63;;;;;;;17.10;100.00;95654.91;5049462;28;24462;-75
2022/06/23 06:02:37;;;;;;;6.20;2.95;;;;;;;17.50;100.00;95653.84;5049135;28;24916;-75
2022/06/23 06:05:05;;;;;;;6.03;3.38;;;;;;;17.70;100.00;95650.22;5041321;28;24969;-75
2022/06/23 06:07:37;;;;;;;4.78;3.00;;;;;;;17.75;100.00;95645.41;5046767;28;24435;-75
2022/06/23 06:10:06;;;;;;;9.93;3.50;;;;;;;18.07;100.00;95638.94;5047589;28;24439;-75
2022/06/23 06:12:36;;;;;;;4.68;2.90;;;;;;;18.25;100.00;95645.06;5046595;28;25003;-75
2022/06/23 06:15:09;;;;;;;5.82;2.90;;;;;;;18.54;100.00;95647.50;5048044;28;24434;-75
2022/06/23 06:17:37;;;;;;;5.90;3.15;;;;;;;18.63;100.00;95643.16;5046611;28;24473;-75
2022/06/23 06:20:07;;;;;;;6.07;3.22;;;;;;;18.96;100.00;95646.94;5047424;28;24463;-75
2022/06/23 06:22:50;;;;;;;7.72;3.50;;;;;;;19.12;100.00;95650.69;5046949;28;24435;-73
2022/06/23 06:25:21;;;;;;;10.50;3.90;;;;;;;19.21;100.00;95645.34;5047410;28;24435;-74
2022/06/23 06:27:48;;;;;;;6.20;3.40;;;;;;;19.35;100.00;95654.47;5050201;28;24427;-73
2022/06/23 06:30:17;;;;;;;7.38;3.42;;;;;;;19.64;100.00;95646.31;5047603;28;25000;-73
2022/06/23 06:32:46;;;;;;;9.00;3.65;;;;;;;19.83;100.00;95646.09;5050411;28;24435;-73
2022/06/23 06:35:25;;;;;;;9.40;3.72;;;;;;;20.15;100.00;95649.88;5045668;28;24798;-74
2022/06/23 06:37:57;;;;;;;6.10;3.43;;;;;;;19.91;100.00;95655.84;5043386;28;24432;-73
2022/06/23 06:40:23;;;;;;;7.50;3.88;;;;;;;19.83;100.00;95656.59;5048320;28;24851;-73
2022/06/23 06:42:53;;;;;;;5.72;2.92;;;;;;;20.11;100.00;95652.97;5051222;28;24844;-73
2022/06/23 06:45:23;;;;;;;15.70;3.67;;;;;;;20.03;100.00;95651.97;5048626;28;24465;-73
2022/06/23 06:47:49;;;;;;;10.57;3.50;;;;;;;20.42;100.00;95655.88;5048361;28;24427;-74
2022/06/23 06:50:28;;;;;;;8.00;3.50;;;;;;;20.64;100.00;95651.88;5040195;28;24442;-74
2022/06/23 06:52:58;;;;;;;7.07;3.65;;;;;;;21.06;100.00;95651.75;5048220;28;25070;-74
2022/06/23 06:55:28;;;;;;;11.38;4.28;;;;;;;21.31;100.00;95654.38;5047114;28;24419;-74
2022/06/23 06:57:59;;;;;;;17.65;3.22;;;;;;;21.40;100.00;95654.25;5040143;28;24999;-73
2022/06/23 07:00:32;;;;;;;12.90;3.53;;;;;;;21.79;100.00;95653.53;5041424;28;24474;-73
2022/06/23 07:03:00;;;;;;;16.23;3.60;;;;;;;21.58;100.00;95647.97;5040325;28;24523;-74
2022/06/23 07:05:33;;;;;;;15.40;3.35;;;;;;;21.17;100.00;95654.09;5047810;28;24960;-73
2022/06/23 07:08:06;;;;;;;9.68;3.58;;;;;;;21.08;100.00;95660.31;5039797;28;24981;-73
2022/06/23 07:10:37;;;;;;;7.50;2.88;;;;;;;21.39;100.00;95659.69;5047783;28;24434;-74
2022/06/23 07:13:10;;;;;;;12.07;3.47;;;;;;;21.86;100.00;95658.97;5040241;28;24439;-74
2022/06/23 07:15:42;;;;;;;9.68;3.25;;;;;;;22.12;100.00;95667.44;5046129;28;24435;-74
2022/06/23 07:18:16;;;;;;;11.35;2.80;;;;;;;22.37;95.06;95662.94;5046501;28;24828;-74
2022/06/23 07:20:48;;;;;;;8.25;3.00;;;;;;;22.12;97.26;95664.00;5049078;28;24852;-73
2022/06/23 07:23:20;;;;;;;8.93;3.07;;;;;;;22.49;95.07;95654.63;5046255;28;24818;-71
2022/06/23 07:25:50;;;;;;;9.00;3.10;;;;;;;22.65;95.08;95654.53;5049124;28;24512;-74
2022/06/23 07:28:23;;;;;;;15.13;3.33;;;;;;;22.89;94.14;95649.13;5046275;28;24569;-74
2022/06/23 07:30:54;;;;;;;7.90;2.90;;;;;;;22.87;92.33;95645.81;5042474;28;24423;-74
2022/06/23 07:33:25;;;;;;;8.70;2.78;;;;;;;22.94;89.38;95641.50;5046607;28;24973;-74
2022/06/23 07:35:57;;;;;;;7.15;3.10;;;;;;;23.48;86.79;95640.59;5049193;28;24431;-74
2022/06/23 07:38:31;;;;;;;6.05;2.83;;;;;;;22.88;88.14;95634.28;5047008;28;24442;-75
2022/06/23 07:41:02;;;;;;;8.15;2.80;;;;;;;23.35;88.11;95643.00;5042072;28;24474;-74
2022/06/23 07:43:35;;;;;;;11.33;3.00;;;;;;;23.86;80.87;95646.69;5045055;28;24577;-74
2022/06/23 07:46:02;;;;;;;5.28;2.15;;;;;;;23.97;78.63;95644.59;5042191;28;24626;-74
2022/06/23 07:48:32;;;;;;;11.07;2.90;;;;;;;24.18;79.77;95642.06;5042498;28;25043;-73
2022/06/23 07:50:59;;;;;;;7.38;2.30;;;;;;;24.37;76.51;95633.53;5049434;28;24426;-74
2022/06/23 07:53:30;;;;;;;16.98;2.83;;;;;;;24.02;76.96;95635.09;5046725;28;24438;-74
2022/06/23 07:55:58;;;;;;;6.95;2.35;;;;;;;24.13;77.71;95637.28;5045661;28;24438;-74
2022/06/23 08:01:00;;;;;;;5.47;2.47;;;;;;;25.03;78.08;95627.31;5027440;28;20815;-74
2022/06/23 08:03:33;;;;;;;16.08;2.75;;;;;;;24.97;77.33;95622.81;5026245;28;24424;-73
2022/06/23 08:06:04;;;;;;;10.05;2.63;;;;;;;24.98;75.93;95632.38;5026167;28;24432;-74
2022/06/23 08:08:35;;;;;;;5.87;2.20;;;;;;;25.29;77.00;95632.91;5028767;28;24439;-75
2022/06/23 08:13:53;;;;;;;7.25;2.35;;;;;;;25.01;73.72;95624.88;5026553;28;24427;-73
2022/06/23 08:19:10;;;;;;;10.55;2.67;;;;;;;25.18;71.03;95630.78;5022766;28;24510;-73
2022/06/23 08:21:42;;;;;;;6.28;2.60;;;;;;;25.46;69.26;95622.03;5023839;28;24523;-72
2022/06/23 08:24:13;;;;;;;6.18;2.40;;;;;;;25.48;68.28;95627.97;5016785;28;24493;-73
2022/06/23 08:26:43;;;;;;;11.07;2.85;;;;;;;25.61;68.75;95622.75;5025841;28;24760;-73
2022/06/23 08:29:13;;;;;;;6.95;2.60;;;;;;;25.78;67.56;95621.47;5028255;28;24438;-73
2022/06/23 08:31:39;;;;;;;8.30;2.40;;;;;;;26.17;67.54;95616.56;5017315;28;24444;-73
2022/06/23 08:34:06;;;;;;;15.18;2.55;;;;;;;26.41;61.55;95613.44;5028118;28;24442;-73
2022/06/23 08:36:43;;;;;;;7.47;2.08;;;;;;;26.41;64.33;95605.47;5025415;28;25060;-73
2022/06/23 08:39:16;;;;;;;7.15;2.38;;;;;;;26.36;63.19;95607.06;5028547;28;24892;-73
2022/06/23 08:41:50;;;;;;;6.43;2.58;;;;;;;26.51;67.71;95600.63;5025812;28;24447;-73
2022/06/23 08:44:27;;;;;;;5.53;2.25;;;;;;;26.53;65.24;95601.22;5027967;28;24455;-73
2022/06/23 08:46:57;;;;;;;6.63;2.38;;;;;;;26.79;63.14;95600.47;5025235;28;24436;-74
2022/06/23 08:49:29;;;;;;;9.10;2.97;;;;;;;26.93;63.51;95600.53;5028876;28;24443;-74
2022/06/23 08:51:59;;;;;;;9.40;2.60;;;;;;;27.07;64.29;95596.03;5026169;28;24478;-73
2022/06/23 08:54:34;;;;;;;8.73;2.95;;;;;;;26.80;67.21;95593.31;5029029;28;24527;-75
2022/06/23 08:57:09;;;;;;;7.82;2.72;;;;;;;26.75;64.58;95588.63;5021957;28;24442;-73
2022/06/23 08:59:44;;;;;;;10.88;2.67;;;;;;;26.97;63.38;95591.13;5022972;28;24853;-74
2022/06/23 09:02:15;;;;;;;6.53;2.60;;;;;;;26.93;61.59;95595.22;5028183;28;24486;-75
2022/06/23 09:04:52;;;;;;;7.10;2.47;;;;;;;26.85;65.65;95596.22;5028265;28;24798;-74
2022/06/23 09:07:33;;;;;;;11.43;2.45;;;;;;;27.04;63.75;95591.94;5026578;28;24436;-75
2022/06/23 09:10:12;;;;;;;9.35;2.95;;;;;;;27.04;62.86;95594.59;5019840;28;24436;-74
2022/06/23 09:12:46;;;;;;;6.88;2.38;;;;;;;27.03;62.07;95592.94;5026579;28;24443;-77
2022/06/23 09:15:47;;;;;;;10.97;2.50;;;;;;;27.14;60.98;95589.72;5026562;28;24436;-74
2022/06/23 09:18:51;;;;;;;6.90;2.50;;;;;;;27.27;61.43;95587.06;5024560;28;24432;-74
2022/06/23 09:21:29;;;;;;;7.32;2.83;;;;;;;27.49;63.32;95582.34;5021549;28;24579;-74
2022/06/23 09:24:09;;;;;;;9.00;2.78;;;;;;;27.33;60.88;95581.94;5029595;28;24975;-74
2022/06/23 09:26:41;;;;;;;8.77;3.20;;;;;;;27.10;64.00;95571.69;5027275;28;24435;-74
2022/06/23 09:29:19;;;;;;;8.88;2.70;;;;;;;27.15;62.62;95571.94;5024582;28;24439;-73
2022/06/23 09:31:58;;;;;;;8.20;2.40;;;;;;;27.36;65.17;95576.22;5026632;28;24439;-74
2022/06/23 09:34:40;;;;;;;6.72;2.50;;;;;;;27.19;64.05;95570.50;5025517;28;25328;-74
2022/06/23 09:37:36;;;;;;;9.80;2.85;;;;;;;27.40;61.79;95570.31;5032348;28;24434;-75
2022/06/23 09:40:28;;;;;;;9.65;2.85;;;;;;;27.05;62.16;95574.97;5001845;28;24464;-74
2022/06/23 09:43:26;;;;;;;9.90;3.17;;;;;;;27.16;61.98;95569.06;5031359;28;24988;-74
2022/06/23 09:46:05;;;;;;;6.03;2.47;;;;;;;27.04;62.90;95565.38;5030207;28;24438;-74
2022/06/23 09:48:52;;;;;;;8.40;2.72;;;;;;;27.40;59.25;95569.47;5028633;28;24482;-73
2022/06/23 09:51:40;;;;;;;7.35;2.58;;;;;;;27.76;60.10;95565.56;5026639;28;24432;-72
2022/06/23 09:54:28;;;;;;;13.88;2.75;;;;;;;27.67;57.82;95560.44;5029825;28;24451;-72
2022/06/23 09:57:12;;;;;;;9.30;2.42;;;;;;;27.59;57.94;95562.47;5024073;28;24443;-72
2022/06/23 10:00:00;;;;;;;8.18;2.75;;;;;;;27.55;59.17;95554.13;5027664;28;24440;-72
2022/06/23 10:02:37;;;;;;;5.90;2.22;;;;;;;27.53;61.75;95555.34;5027910;28;24443;-72
2022/06/23 10:05:18;;;;;;;6.78;2.55;;;;;;;27.79;60.10;95559.84;5028866;28;25004;-72
2022/06/23 10:08:06;;;;;;;9.88;2.75;;;;;;;28.00;61.54;95562.22;5029992;28;24451;-72
2022/06/23 10:11:00;;;;;;;6.88;2.70;;;;;;;27.43;58.53;95556.56;5027375;28;24570;-73
2022/06/23 10:14:09;;;;;;;9.77;2.80;;;;;;;27.70;59.47;95553.88;5023005;28;24437;-73
2022/06/23 10:16:51;;;;;;;11.63;2.90;;;;;;;27.89;57.65;95562.88;4950740;28;24438;-72
2022/06/23 10:19:47;;;;;;;9.68;2.78;;;;;;;28.18;58.52;95548.22;4951065;28;24872;-72
2022/06/23 10:22:34;;;;;;;9.43;3.08;;;;;;;28.26;57.02;95548.00;5004510;28;24478;-72
2022/06/23 10:25:24;;;;;;;15.82;3.67;;;;;;;28.28;56.32;95537.13;5027953;28;24485;-73
2022/06/23 10:28:08;;;;;;;11.80;3.13;;;;;;;28.10;57.62;95545.78;5021427;28;25008;-74
2022/06/23 10:30:42;;;;;;;11.70;3.27;;;;;;;28.35;56.92;95538.72;5028125;28;24609;-73
2022/06/23 10:33:27;;;;;;;12.52;2.53;;;;;;;28.62;57.52;95534.09;5026608;28;24431;-72
2022/06/23 10:36:11;;;;;;;21.70;3.37;;;;;;;28.55;54.81;95535.97;5031053;28;24442;-72
2022/06/23 10:38:55;;;;;;;10.55;2.47;;;;;;;28.58;53.97;95527.56;5028166;28;24424;-72
2022/06/23 10:41:44;;;;;;;8.95;2.80;;;;;;;27.77;55.69;95533.41;5025749;28;24456;-72
2022/06/23 10:44:34;;;;;;;12.65;2.88;;;;;;;27.90;58.03;95527.25;5025407;28;24467;-72
2022/06/23 10:47:13;;;;;;;12.45;2.85;;;;;;;28.35;55.81;95529.91;5014090;28;24440;-72
2022/06/23 10:50:02;;;;;;;9.90;2.80;;;;;;;28.47;54.23;95525.56;5020795;28;24439;-73
2022/06/23 10:53:00;;;;;;;8.17;2.53;;;;;;;28.65;53.64;95517.66;5023365;28;24440;-72
2022/06/23 10:55:35;;;;;;;7.17;2.43;;;;;;;28.81;55.10;95518.19;5026761;28;24911;-72
2022/06/23 10:58:37;;;;;;;10.07;2.80;;;;;;;28.86;50.29;95523.69;5026290;28;24849;-73
2022/06/23 11:01:22;;;;;;;7.05;3.05;;;;;;;28.77;51.63;95515.13;5019930;28;24451;-74
2022/06/23 11:04:06;;;;;;;11.40;2.70;;;;;;;28.82;51.43;95517.97;5020132;28;24428;-74
2022/06/23 11:06:52;;;;;;;9.47;3.10;;;;;;;28.20;51.24;95514.22;5025474;28;24444;-73
2022/06/23 11:09:43;;;;;;;9.35;2.75;;;;;;;28.58;53.61;95514.22;5025037;28;24815;-74
2022/06/23 11:12:25;;;;;;;11.85;3.05;;;;;;;28.58;50.14;95516.09;5024377;28;24845;-72
2022/06/23 11:15:03;;;;;;;8.98;2.88;;;;;;;29.16;51.73;95505.22;5028813;28;24424;-75
2022/06/23 11:17:43;;;;;;;9.65;2.85;;;;;;;29.05;51.25;95500.59;5030529;28;24474;-75
2022/06/23 11:20:25;;;;;;;8.93;3.03;;;;;;;29.20;51.04;95492.28;5024118;28;24456;-74
2022/06/23 11:23:01;;;;;;;10.75;3.05;;;;;;;28.97;49.22;95492.84;5021499;28;24504;-74
2022/06/23 11:25:45;;;;;;;22.95;4.30;;;;;;;29.06;48.76;95496.91;5030344;28;24455;-74
2022/06/23 11:28:23;;;;;;;9.25;2.90;;;;;;;29.12;49.25;95496.84;5022856;28;24432;-75
2022/06/23 11:30:59;;;;;;;9.00;2.78;;;;;;;29.12;48.13;95490.69;5021798;28;24440;-73
2022/06/23 11:33:59;;;;;;;10.48;2.80;;;;;;;29.00;49.46;95495.94;5029031;28;24459;-73
2022/06/23 11:36:48;;;;;;;8.68;2.53;;;;;;;28.92;49.83;95489.00;5022875;28;24479;-73
2022/06/23 11:39:35;;;;;;;8.48;2.53;;;;;;;28.68;52.20;95487.13;5024538;28;24475;-73
2022/06/23 11:42:13;;;;;;;7.18;2.55;;;;;;;29.06;53.43;95489.72;5023714;28;24496;-73
2022/06/23 11:45:07;;;;;;;9.50;2.80;;;;;;;28.63;50.26;95482.44;5027802;28;24455;-75
2022/06/23 11:47:49;;;;;;;10.85;3.10;;;;;;;27.94;50.67;95489.34;5030544;28;24444;-75
2022/06/23 11:50:22;;;;;;;7.40;2.90;;;;;;;27.73;52.71;95479.75;5029630;28;24444;-75
2022/06/23 11:53:00;;;;;;;6.75;2.30;;;;;;;27.91;52.38;95472.97;5029603;28;24439;-71
2022/06/23 11:55:35;;;;;;;8.15;2.80;;;;;;;28.15;51.59;95471.44;5028361;28;24435;-75
2022/06/23 11:58:45;;;;;;;7.65;2.90;;;;;;;28.06;52.38;95462.06;5027412;28;24443;-75
2022/06/23 12:01:15;;;;;;;17.58;3.13;;;;;;;27.71;52.37;95462.41;5029659;28;24455;-75
2022/06/23 12:04:11;;;;;;;12.18;2.88;;;;;;;28.05;51.55;95469.22;5029511;28;25039;-75
2022/06/23 12:06:47;;;;;;;8.20;2.78;;;;;;;28.05;50.31;95468.44;5029605;28;24442;-76
2022/06/23 12:09:23;;;;;;;8.15;2.80;;;;;;;28.23;50.10;95461.34;5020465;28;24531;-76
2022/06/23 12:11:51;;;;;;;9.50;2.47;;;;;;;28.73;52.69;95457.97;5026938;28;24431;-74
2022/06/23 12:14:18;;;;;;;5.28;2.42;;;;;;;28.67;50.98;95457.00;5024000;28;24435;-75
2022/06/23 12:16:52;;;;;;;7.97;2.30;;;;;;;28.41;50.88;95446.53;5028594;28;24447;-75
2022/06/23 12:19:22;;;;;;;8.95;2.25;;;;;;;28.47;49.49;95450.97;5023455;28;25035;-76
2022/06/23 12:21:57;;;;;;;9.65;2.35;;;;;;;28.34;49.64;95457.19;5024336;28;24451;-76